The Bluffs, Vermont
Current Conditions -  °F | °C
As of 5:55 PM on Thursday 23 Oct 2014 (Local Time) from KEFK Reporting Station
Light Rain Light Rain  
Wind Chill: 37°   Ceiling: 700
Heat Index: 44°   Visibility: 10mi
Dew Point: 43°   Wind: 14mph
Humidity: 96%   Direction: 350°N
Pressure: 29.88"   Gusts: NA
Location:  44.9201°N, 72.2004°W
Report Text: KEFK 232155Z AUTO 35012KT 10SM -RA OVC007 07/06 A2988 RMK AO2 T00670061
Loading
Personal Weather Stations






























Interactive Weather Map
Tropical Storm Tracking
New forecast layout! Learn more

10-Day Weather Forecast

Advertisements
Track Severe Weather on mobile